createdAt,value
2022-10-14T00:00:10.677Z,13.54
2022-10-14T00:02:38.356Z,13.49
2022-10-14T00:05:06.681Z,13.52
2022-10-14T00:07:34.258Z,13.61
2022-10-14T00:10:01.972Z,13.64
2022-10-14T00:12:29.812Z,13.56
2022-10-14T00:14:57.588Z,13.58
2022-10-14T00:17:27.125Z,13.57
2022-10-14T00:19:54.689Z,13.58
2022-10-14T00:22:22.359Z,13.53
2022-10-14T00:24:49.875Z,13.57
2022-10-14T00:27:17.504Z,13.49
2022-10-14T00:29:45.064Z,13.50
2022-10-14T00:32:12.764Z,13.47
2022-10-14T00:34:41.748Z,13.43
2022-10-14T00:37:09.358Z,13.42
2022-10-14T00:39:37.053Z,13.43
2022-10-14T00:42:05.022Z,13.41
2022-10-14T00:45:02.053Z,13.44
2022-10-14T00:47:30.628Z,13.41
2022-10-14T00:50:01.077Z,13.46
2022-10-14T00:52:29.680Z,13.49
2022-10-14T00:55:01.550Z,13.46
2022-10-14T00:57:30.660Z,13.39
2022-10-14T01:00:04.543Z,13.43
2022-10-14T01:02:32.244Z,13.46
2022-10-14T01:05:02.475Z,13.41
2022-10-14T01:07:39.480Z,13.38
2022-10-14T01:10:14.450Z,13.45
2022-10-14T01:12:55.660Z,13.49
2022-10-14T01:15:30.972Z,13.44
2022-10-14T01:18:17.732Z,13.48
2022-10-14T01:20:58.128Z,13.49
2022-10-14T01:23:48.717Z,13.43
2022-10-14T01:26:38.612Z,13.43
2022-10-14T01:29:20.777Z,13.43
2022-10-14T01:31:59.208Z,13.45
2022-10-14T01:34:35.528Z,13.40
2022-10-14T01:37:09.744Z,13.38
2022-10-14T01:39:43.217Z,13.36
2022-10-14T01:42:14.205Z,13.30
2022-10-14T01:44:46.347Z,13.29
2022-10-14T01:47:19.389Z,13.35
2022-10-14T01:49:53.169Z,13.38
2022-10-14T01:52:27.485Z,13.37
2022-10-14T01:55:00.869Z,13.38
2022-10-14T01:57:33.525Z,13.32
2022-10-14T02:00:03.185Z,13.38
2022-10-14T02:02:32.111Z,13.39
2022-10-14T02:04:59.894Z,13.40
2022-10-14T02:07:33.367Z,13.44
2022-10-14T02:10:08.678Z,13.37
2022-10-14T02:12:46.505Z,13.36
2022-10-14T02:15:21.154Z,13.31
2022-10-14T02:17:57.201Z,13.30
2022-10-14T02:20:30.021Z,13.38
2022-10-14T02:23:01.761Z,13.40
2022-10-14T02:25:33.378Z,13.49
2022-10-14T02:28:03.345Z,13.50
2022-10-14T02:30:36.029Z,13.54
2022-10-14T02:33:06.748Z,13.53
2022-10-14T02:35:35.480Z,13.56
2022-10-14T02:38:03.648Z,13.50
2022-10-14T02:40:37.162Z,13.45
2022-10-14T02:43:07.847Z,13.43
2022-10-14T02:45:35.664Z,13.41
2022-10-14T02:48:03.244Z,13.43
2022-10-14T02:50:32.429Z,13.38
2022-10-14T02:53:00.281Z,13.40
2022-10-14T02:55:27.976Z,13.37
2022-10-14T02:57:55.552Z,13.39
2022-10-14T03:00:23.165Z,13.32
2022-10-14T03:02:50.943Z,13.29
2022-10-14T03:05:18.837Z,13.35
2022-10-14T03:07:47.755Z,13.35
2022-10-14T03:10:15.383Z,13.32
2022-10-14T03:12:43.046Z,13.35
2022-10-14T03:15:11.591Z,13.29
2022-10-14T03:17:39.786Z,13.36
2022-10-14T03:20:08.323Z,13.32
2022-10-14T03:22:35.956Z,13.32
2022-10-14T03:25:05.354Z,13.34
2022-10-14T03:27:32.850Z,13.36
2022-10-14T03:30:00.427Z,13.40
2022-10-14T03:32:28.091Z,13.36
2022-10-14T03:34:55.707Z,13.39
2022-10-14T03:37:23.540Z,13.40
2022-10-14T03:39:51.194Z,13.44
2022-10-14T03:42:20.489Z,13.44
2022-10-14T03:44:48.415Z,13.46
2022-10-14T03:47:16.040Z,13.47
2022-10-14T03:49:43.639Z,13.48
2022-10-14T03:52:11.263Z,13.49
2022-10-14T03:54:39.003Z,13.48
2022-10-14T03:57:06.707Z,13.51
2022-10-14T03:59:35.667Z,13.59
2022-10-14T04:02:03.258Z,13.47
2022-10-14T04:04:31.043Z,13.47
2022-10-14T04:06:58.695Z,13.51
2022-10-14T04:09:27.481Z,13.51
2022-10-14T04:11:57.784Z,13.43
2022-10-14T04:14:26.494Z,13.56
2022-10-14T04:16:55.518Z,13.51
2022-10-14T04:19:23.203Z,13.46
2022-10-14T04:21:50.910Z,13.42
2022-10-14T04:24:18.469Z,13.44
2022-10-14T04:26:46.048Z,13.47
2022-10-14T04:29:14.318Z,13.43
2022-10-14T04:31:42.114Z,13.43
2022-10-14T04:34:12.527Z,13.43
2022-10-14T04:36:40.497Z,13.52
2022-10-14T04:39:08.104Z,13.58
2022-10-14T04:41:35.765Z,13.45
2022-10-14T04:44:03.404Z,13.55
2022-10-14T04:46:31.434Z,13.49
2022-10-14T04:48:59.186Z,13.46
2022-10-14T04:51:28.165Z,13.48
2022-10-14T04:53:57.242Z,13.42
2022-10-14T04:56:24.815Z,13.43
2022-10-14T04:58:52.409Z,13.41
2022-10-14T05:01:20.594Z,13.41
2022-10-14T05:03:48.464Z,13.48
2022-10-14T05:06:16.034Z,13.46
2022-10-14T05:08:45.459Z,13.47
2022-10-14T05:11:13.458Z,13.47
2022-10-14T05:13:41.308Z,13.43
2022-10-14T05:16:09.300Z,13.47
2022-10-14T05:18:37.284Z,13.49
2022-10-14T05:21:05.163Z,13.56
2022-10-14T05:23:32.843Z,13.50
2022-10-14T05:26:01.829Z,13.56
2022-10-14T05:28:29.454Z,13.51
2022-10-14T05:30:57.032Z,13.45
2022-10-14T05:33:24.862Z,13.49
2022-10-14T05:35:59.943Z,13.49
2022-10-14T05:38:27.805Z,13.60
2022-10-14T05:40:56.388Z,13.50
2022-10-14T05:43:31.825Z,13.50
2022-10-14T05:46:00.860Z,13.57
2022-10-14T05:48:28.505Z,13.47
2022-10-14T05:50:56.106Z,13.54
2022-10-14T05:53:23.808Z,13.53
2022-10-14T05:55:51.498Z,13.51
2022-10-14T05:58:19.037Z,13.50
2022-10-14T06:00:47.891Z,13.51
2022-10-14T06:03:15.582Z,13.68
2022-10-14T06:05:43.193Z,13.67
2022-10-14T06:08:10.732Z,13.74
2022-10-14T06:10:38.448Z,13.77
2022-10-14T06:13:06.215Z,13.78
2022-10-14T06:15:36.063Z,13.82
2022-10-14T06:18:05.445Z,13.87
2022-10-14T06:20:33.184Z,13.81
2022-10-14T06:23:01.319Z,13.86
2022-10-14T06:25:29.287Z,13.91
2022-10-14T06:27:57.215Z,13.90
2022-10-14T06:30:24.916Z,14.00
2022-10-14T06:32:53.724Z,14.04
2022-10-14T06:35:22.760Z,14.03
2022-10-14T06:37:50.590Z,14.10
2022-10-14T06:40:18.421Z,14.15
2022-10-14T06:42:45.944Z,14.15
2022-10-14T06:45:16.105Z,14.29
2022-10-14T06:47:43.663Z,14.26
2022-10-14T06:50:11.237Z,14.32
2022-10-14T06:52:40.173Z,14.28
2022-10-14T06:55:08.908Z,14.22
2022-10-14T06:57:36.451Z,14.35
2022-10-14T07:00:04.582Z,14.41
2022-10-14T07:02:32.203Z,14.29
2022-10-14T07:04:59.808Z,14.40
2022-10-14T07:07:27.497Z,14.39
2022-10-14T07:09:56.351Z,14.42
2022-10-14T07:12:24.384Z,14.38
2022-10-14T07:14:52.402Z,14.15
2022-10-14T07:17:20.550Z,14.27
2022-10-14T07:19:48.203Z,14.45
2022-10-14T07:22:16.459Z,14.19
2022-10-14T07:24:44.090Z,14.17
2022-10-14T07:27:15.901Z,14.20
2022-10-14T07:29:43.911Z,14.31
2022-10-14T07:32:11.471Z,14.39
2022-10-14T07:34:39.146Z,14.54
2022-10-14T07:37:06.918Z,14.51
2022-10-14T07:39:34.609Z,14.59
2022-10-14T07:42:02.242Z,14.74
2022-10-14T07:44:31.197Z,14.79
2022-10-14T07:47:01.621Z,14.77
2022-10-14T07:49:29.243Z,14.84
2022-10-14T07:51:56.960Z,14.90
2022-10-14T07:54:29.277Z,14.91
2022-10-14T07:56:57.917Z,14.94
2022-10-14T07:59:26.450Z,15.04
2022-10-14T08:01:56.568Z,15.16
2022-10-14T08:04:25.977Z,15.25
2022-10-14T08:06:53.951Z,15.20
2022-10-14T08:09:21.792Z,15.12
2022-10-14T08:11:49.960Z,14.98
2022-10-14T08:14:17.899Z,14.93
2022-10-14T08:16:46.798Z,14.93
2022-10-14T08:19:16.036Z,14.86
2022-10-14T08:21:44.340Z,15.02
2022-10-14T08:24:12.505Z,15.07
2022-10-14T08:26:41.662Z,15.18
2022-10-14T08:29:12.107Z,15.22
2022-10-14T08:31:39.714Z,15.30
2022-10-14T08:34:07.638Z,15.44
2022-10-14T08:36:36.587Z,15.56
2022-10-14T08:39:04.651Z,15.68
2022-10-14T08:41:46.834Z,15.72
2022-10-14T08:44:22.880Z,15.86
2022-10-14T08:46:53.264Z,15.57
2022-10-14T08:49:26.443Z,15.88
2022-10-14T08:52:00.859Z,15.83
2022-10-14T08:54:37.576Z,15.46
2022-10-14T08:57:06.066Z,15.61
2022-10-14T08:59:38.119Z,15.90
2022-10-14T09:02:22.186Z,15.75
2022-10-14T09:04:50.308Z,15.80
2022-10-14T09:07:21.137Z,15.75
2022-10-14T09:09:51.536Z,15.66
2022-10-14T09:12:23.114Z,15.58
2022-10-14T09:15:00.248Z,15.55
2022-10-14T09:17:35.398Z,15.51
2022-10-14T09:20:16.705Z,15.58
2022-10-14T09:22:46.361Z,15.64
2022-10-14T09:25:16.520Z,15.55
2022-10-14T09:27:44.316Z,15.54
2022-10-14T09:30:16.349Z,15.72
2022-10-14T09:32:48.904Z,15.97
2022-10-14T09:35:23.677Z,16.14
2022-10-14T09:37:53.638Z,16.11
2022-10-14T09:40:29.671Z,16.00
2022-10-14T09:43:01.446Z,15.82
2022-10-14T09:45:31.041Z,16.02
2022-10-14T09:48:04.063Z,16.22
2022-10-14T09:50:36.272Z,16.14
2022-10-14T09:53:10.987Z,16.36
2022-10-14T09:55:49.621Z,16.40
2022-10-14T09:58:20.227Z,16.30
2022-10-14T10:00:48.538Z,15.97
2022-10-14T10:03:27.856Z,15.86
2022-10-14T10:06:05.201Z,15.81
2022-10-14T10:08:36.283Z,15.84
2022-10-14T10:11:08.237Z,16.09
2022-10-14T10:13:40.429Z,16.46
2022-10-14T10:16:19.589Z,16.81
2022-10-14T10:18:47.302Z,17.19
2022-10-14T10:21:18.301Z,17.62
2022-10-14T10:23:57.015Z,17.73
2022-10-14T10:26:31.757Z,17.84
2022-10-14T10:29:02.653Z,18.24
2022-10-14T10:31:57.368Z,18.38
2022-10-14T10:34:51.428Z,18.31
2022-10-14T10:37:26.416Z,18.41
2022-10-14T10:40:09.425Z,18.26
2022-10-14T10:42:51.400Z,18.17
2022-10-14T10:45:32.756Z,17.91
2022-10-14T10:48:11.296Z,17.81
2022-10-14T10:50:48.845Z,17.84
2022-10-14T10:53:37.838Z,17.82
2022-10-14T10:56:15.017Z,17.76
2022-10-14T10:58:50.324Z,17.61
2022-10-14T11:01:33.371Z,17.69
2022-10-14T11:04:18.276Z,17.49
2022-10-14T11:07:11.198Z,17.54
2022-10-14T11:10:01.619Z,17.56
2022-10-14T11:12:39.598Z,17.63
2022-10-14T11:15:25.765Z,17.60
2022-10-14T11:18:02.216Z,17.60
2022-10-14T11:20:44.778Z,17.78
2022-10-14T11:23:44.506Z,17.62
2022-10-14T11:26:21.786Z,17.72
2022-10-14T11:28:56.830Z,17.47
2022-10-14T11:31:36.112Z,17.38
2022-10-14T11:34:17.560Z,17.23
2022-10-14T11:36:56.007Z,17.15
2022-10-14T11:39:39.050Z,17.09
2022-10-14T11:42:26.062Z,16.90
2022-10-14T11:45:06.868Z,16.86
2022-10-14T11:47:36.781Z,16.73
2022-10-14T11:50:12.674Z,16.96
2022-10-14T11:52:45.420Z,16.88
2022-10-14T11:55:18.118Z,16.69
2022-10-14T11:57:50.138Z,16.70
2022-10-14T12:00:22.088Z,16.98
2022-10-14T12:02:55.467Z,17.05
2022-10-14T12:05:36.265Z,17.40
2022-10-14T12:08:15.026Z,17.77
2022-10-14T12:10:46.798Z,17.71
2022-10-14T12:13:17.225Z,17.59
2022-10-14T12:15:51.533Z,17.20
2022-10-14T12:18:20.281Z,17.23
2022-10-14T12:20:53.344Z,17.14
2022-10-14T12:23:33.765Z,16.97
2022-10-14T12:26:07.735Z,16.63
2022-10-14T12:28:37.500Z,16.64
2022-10-14T12:31:27.471Z,16.58
2022-10-14T12:34:32.318Z,16.36
2022-10-14T12:37:01.435Z,16.32
2022-10-14T12:39:34.662Z,16.20
2022-10-14T12:42:05.316Z,16.13
2022-10-14T12:44:45.479Z,16.29
2022-10-14T12:47:24.412Z,16.16
2022-10-14T12:49:56.055Z,16.12
2022-10-14T12:52:27.931Z,16.22
2022-10-14T12:54:56.867Z,16.19
2022-10-14T12:57:29.551Z,15.97
2022-10-14T13:00:00.289Z,15.92
2022-10-14T13:02:38.532Z,15.97
2022-10-14T13:05:10.419Z,15.83
2022-10-14T13:07:44.832Z,15.69
2022-10-14T13:10:46.941Z,15.69
2022-10-14T13:13:52.218Z,15.69
2022-10-14T13:17:12.016Z,15.81
2022-10-14T13:19:45.671Z,15.91
2022-10-14T13:22:36.675Z,15.88
2022-10-14T13:25:11.990Z,16.01
2022-10-14T13:27:48.817Z,15.92
2022-10-14T13:30:20.953Z,16.10
2022-10-14T13:32:54.484Z,16.13
2022-10-14T13:35:30.277Z,15.91
2022-10-14T13:38:01.134Z,15.93
2022-10-14T13:40:35.395Z,15.87
2022-10-14T13:43:08.349Z,16.04
2022-10-14T13:45:42.290Z,16.07
2022-10-14T13:48:14.875Z,16.07
2022-10-14T13:50:44.689Z,16.02
2022-10-14T13:53:20.640Z,16.04
2022-10-14T13:55:54.665Z,16.10
2022-10-14T13:58:24.322Z,16.08
2022-10-14T14:01:03.731Z,16.08
2022-10-14T14:03:35.167Z,15.94
2022-10-14T14:06:10.882Z,15.87
2022-10-14T14:08:48.476Z,15.86
2022-10-14T14:11:22.180Z,15.86
2022-10-14T14:14:00.205Z,15.90
2022-10-14T14:16:33.180Z,16.02
2022-10-14T14:19:08.901Z,16.01
2022-10-14T14:21:45.872Z,16.01
2022-10-14T14:24:24.857Z,16.00
2022-10-14T14:26:55.821Z,15.90
2022-10-14T14:29:27.340Z,16.03
2022-10-14T14:32:10.799Z,16.13
2022-10-14T14:34:40.467Z,16.08
2022-10-14T14:40:06.357Z,16.24
2022-10-14T14:42:36.413Z,16.18
2022-10-14T14:45:07.452Z,16.22
2022-10-14T14:47:35.298Z,16.35
2022-10-14T14:50:29.134Z,16.33
2022-10-14T14:52:53.516Z,16.37
2022-10-14T14:55:44.816Z,16.34
2022-10-14T14:58:25.320Z,16.20
2022-10-14T15:00:54.809Z,16.26
2022-10-14T15:03:24.060Z,16.37
2022-10-14T15:05:53.821Z,16.30
2022-10-14T15:08:26.172Z,16.25
2022-10-14T15:10:56.449Z,16.19
2022-10-14T15:13:31.059Z,16.10
2022-10-14T15:16:00.220Z,16.03
2022-10-14T15:18:29.074Z,15.92
2022-10-14T15:21:14.432Z,15.88
2022-10-14T15:23:46.887Z,15.78
2022-10-14T15:26:23.245Z,15.75
2022-10-14T15:29:05.170Z,15.76
2022-10-14T15:31:39.973Z,15.87
2022-10-14T15:34:17.163Z,15.79
2022-10-14T15:36:44.969Z,15.76
2022-10-14T15:39:14.761Z,15.76
2022-10-14T15:41:43.362Z,15.74
2022-10-14T15:44:10.946Z,15.61
2022-10-14T15:46:57.451Z,15.64
2022-10-14T15:49:29.427Z,15.61
2022-10-14T15:51:57.039Z,15.68
2022-10-14T15:54:27.204Z,15.57
2022-10-14T15:59:24.897Z,15.67
2022-10-14T16:01:53.316Z,15.56
2022-10-14T16:04:24.498Z,15.49
2022-10-14T16:06:54.726Z,15.51
2022-10-14T16:09:23.013Z,15.52
2022-10-14T16:11:57.219Z,15.44
2022-10-14T16:14:25.047Z,15.46
2022-10-14T16:16:52.618Z,15.52
2022-10-14T16:19:20.192Z,15.45
2022-10-14T16:21:49.701Z,15.49
2022-10-14T16:24:20.121Z,15.52
2022-10-14T16:26:49.158Z,15.59
2022-10-14T16:29:18.464Z,15.51
2022-10-14T16:31:49.158Z,15.52
2022-10-14T16:34:16.785Z,15.45
2022-10-14T16:36:44.431Z,15.46
2022-10-14T16:39:12.724Z,15.44
2022-10-14T16:41:40.651Z,15.49
2022-10-14T16:44:24.206Z,15.47
2022-10-14T16:47:11.470Z,15.45
2022-10-14T16:49:39.736Z,15.53
2022-10-14T16:52:07.910Z,15.51
2022-10-14T16:54:35.707Z,15.53
2022-10-14T16:57:03.302Z,15.54
2022-10-14T16:59:31.237Z,15.53
2022-10-14T17:02:01.185Z,15.46
2022-10-14T17:04:29.170Z,15.47
2022-10-14T17:06:57.032Z,15.52
2022-10-14T17:11:57.284Z,15.49
2022-10-14T17:14:24.828Z,15.43
2022-10-14T17:16:52.625Z,15.52
2022-10-14T17:19:21.670Z,15.45
2022-10-14T17:21:49.479Z,15.49
2022-10-14T17:24:17.473Z,15.56
2022-10-14T17:26:45.848Z,15.46
2022-10-14T17:29:13.438Z,15.48
2022-10-14T17:31:41.569Z,15.52
2022-10-14T17:34:09.713Z,15.54
2022-10-14T17:36:39.981Z,15.52
2022-10-14T17:39:07.614Z,15.51
2022-10-14T17:41:35.314Z,15.50
2022-10-14T17:44:03.815Z,15.48
2022-10-14T17:46:32.128Z,15.54
2022-10-14T17:49:01.542Z,15.52
2022-10-14T17:51:29.569Z,15.51
2022-10-14T17:54:00.158Z,15.48
2022-10-14T17:56:29.638Z,15.46
2022-10-14T17:58:58.805Z,15.45
2022-10-14T18:01:37.206Z,15.49
2022-10-14T18:04:11.586Z,15.45
2022-10-14T18:06:39.354Z,15.44
2022-10-14T18:09:10.376Z,15.51
2022-10-14T18:12:07.175Z,15.55
2022-10-14T18:14:29.595Z,15.49
2022-10-14T18:16:59.196Z,15.50
2022-10-14T18:19:27.011Z,15.43
2022-10-14T18:21:54.580Z,15.40
2022-10-14T18:24:23.561Z,15.36
2022-10-14T18:26:51.368Z,15.43
2022-10-14T18:29:18.998Z,15.37
2022-10-14T18:31:46.576Z,15.33
2022-10-14T18:34:14.298Z,15.43
2022-10-14T18:36:42.030Z,15.48
2022-10-14T18:39:12.590Z,15.46
2022-10-14T18:41:43.808Z,15.44
2022-10-14T18:44:11.517Z,15.44
2022-10-14T18:46:40.091Z,15.40
2022-10-14T18:49:09.157Z,15.39
2022-10-14T18:51:38.490Z,15.36
2022-10-14T18:54:08.172Z,15.40
2022-10-14T18:56:38.611Z,15.42
2022-10-14T18:59:09.528Z,15.40
2022-10-14T19:01:39.176Z,15.33
2022-10-14T19:04:12.900Z,15.33
2022-10-14T19:06:40.837Z,15.28
2022-10-14T19:09:12.227Z,15.27
2022-10-14T19:11:40.157Z,15.22
2022-10-14T19:14:09.740Z,15.22
2022-10-14T19:16:39.798Z,15.28
2022-10-14T19:19:11.680Z,15.30
2022-10-14T19:21:39.929Z,15.19
2022-10-14T19:24:08.703Z,15.21
2022-10-14T19:26:39.036Z,15.20
2022-10-14T19:29:11.539Z,15.20
2022-10-14T19:31:40.686Z,15.16
2022-10-14T19:34:11.101Z,15.20
2022-10-14T19:36:40.121Z,15.14
2022-10-14T19:39:09.760Z,15.16
2022-10-14T19:41:42.504Z,15.17
2022-10-14T19:44:12.609Z,15.20
2022-10-14T19:46:40.580Z,15.16
2022-10-14T19:49:08.371Z,15.22
2022-10-14T19:51:36.539Z,15.20
2022-10-14T19:54:04.127Z,15.28
2022-10-14T19:56:31.923Z,15.26
2022-10-14T19:59:01.646Z,15.21
2022-10-14T20:01:32.209Z,15.22
2022-10-14T20:04:01.140Z,15.22
2022-10-14T20:06:33.146Z,15.15
2022-10-14T20:09:00.823Z,15.16
2022-10-14T20:11:28.676Z,15.18
2022-10-14T20:13:56.285Z,15.16
2022-10-14T20:16:23.920Z,15.14
2022-10-14T20:18:52.889Z,15.16
2022-10-14T20:21:20.657Z,15.11
2022-10-14T20:23:48.241Z,15.14
2022-10-14T20:26:18.064Z,15.18
2022-10-14T20:28:45.800Z,15.26
2022-10-14T20:31:15.088Z,15.19
2022-10-14T20:33:43.284Z,15.11
2022-10-14T20:36:14.567Z,15.14
2022-10-14T20:38:43.261Z,15.09
2022-10-14T20:41:14.425Z,15.12
2022-10-14T20:43:43.043Z,15.09
2022-10-14T20:46:11.279Z,15.08
2022-10-14T20:48:39.176Z,15.09
2022-10-14T20:51:07.811Z,15.16
2022-10-14T20:53:37.030Z,15.13
2022-10-14T20:56:05.880Z,15.07
2022-10-14T20:58:33.773Z,15.16
2022-10-14T21:01:06.241Z,14.98
2022-10-14T21:03:33.839Z,14.93
2022-10-14T21:06:04.047Z,14.97
2022-10-14T21:08:31.659Z,14.91
2022-10-14T21:11:01.645Z,14.94
2022-10-14T21:13:29.540Z,14.92
2022-10-14T21:15:57.314Z,14.95
2022-10-14T21:18:25.031Z,15.00
2022-10-14T21:23:28.185Z,14.95
2022-10-14T21:25:57.163Z,15.01
2022-10-14T21:28:26.522Z,15.07
2022-10-14T21:30:54.060Z,15.05
2022-10-14T21:33:21.584Z,15.05
2022-10-14T21:35:49.089Z,15.02
2022-10-14T21:38:16.614Z,15.07
2022-10-14T21:40:44.491Z,15.14
2022-10-14T21:43:12.134Z,15.08
2022-10-14T21:45:41.036Z,15.04
2022-10-14T21:48:08.841Z,15.05
2022-10-14T21:50:36.383Z,15.15
2022-10-14T21:53:03.936Z,15.16
2022-10-14T21:55:31.463Z,15.10
2022-10-14T21:57:58.946Z,15.08
2022-10-14T22:00:26.483Z,15.07
2022-10-14T22:02:55.417Z,15.13
2022-10-14T22:05:23.430Z,15.14
2022-10-14T22:07:50.933Z,15.11
2022-10-14T22:10:36.521Z,15.19
2022-10-14T22:13:04.127Z,15.22
2022-10-14T22:15:31.719Z,15.19
2022-10-14T22:18:00.700Z,15.22
2022-10-14T22:20:28.199Z,15.24
2022-10-14T22:22:55.752Z,15.21
2022-10-14T22:25:23.328Z,15.25
2022-10-14T22:27:52.102Z,15.23
2022-10-14T22:30:19.992Z,15.30
2022-10-14T22:32:47.714Z,15.22
2022-10-14T22:35:17.609Z,15.24
2022-10-14T22:37:45.490Z,15.26
2022-10-14T22:40:13.477Z,15.19
2022-10-14T22:42:42.348Z,15.24
2022-10-14T22:45:11.574Z,15.25
2022-10-14T22:47:39.546Z,15.31
2022-10-14T22:50:08.164Z,15.30
2022-10-14T22:52:37.106Z,15.30
2022-10-14T22:55:05.131Z,15.33
2022-10-14T22:57:33.075Z,15.25
2022-10-14T23:00:00.860Z,15.13
2022-10-14T23:02:28.799Z,15.11
2022-10-14T23:04:56.953Z,15.02
2022-10-14T23:07:24.800Z,15.04
2022-10-14T23:09:53.700Z,15.02
2022-10-14T23:12:21.622Z,15.09
2022-10-14T23:14:51.193Z,15.13
2022-10-14T23:17:19.229Z,15.11
2022-10-14T23:19:47.750Z,15.06
2022-10-14T23:22:15.341Z,15.08
2022-10-14T23:24:42.980Z,15.07
2022-10-14T23:27:11.891Z,15.13
2022-10-14T23:29:39.570Z,15.15
2022-10-14T23:32:07.428Z,15.14
2022-10-14T23:34:35.219Z,15.09
2022-10-14T23:37:02.902Z,15.15
2022-10-14T23:39:30.682Z,15.19
2022-10-14T23:41:58.315Z,15.15
2022-10-14T23:44:27.220Z,15.18
2022-10-14T23:46:54.935Z,15.16
2022-10-14T23:49:25.892Z,15.23
2022-10-14T23:51:54.453Z,15.05
2022-10-14T23:54:22.154Z,15.13
2022-10-14T23:56:49.708Z,15.13
2022-10-14T23:59:17.453Z,15.16
